createdAt,value
2019-03-18T00:00:24.919Z,1.20
2019-03-18T00:03:30.100Z,0.83
2019-03-18T00:06:35.260Z,1.03
2019-03-18T00:09:40.871Z,1.03
2019-03-18T00:12:46.014Z,0.80
2019-03-18T00:15:51.191Z,1.23
2019-03-18T00:18:56.345Z,0.90
2019-03-18T00:22:01.530Z,1.60
2019-03-18T00:25:06.998Z,1.40
2019-03-18T00:28:12.221Z,1.30
2019-03-18T00:31:17.375Z,1.13
2019-03-18T00:34:22.529Z,1.30
2019-03-18T00:37:27.624Z,1.47
2019-03-18T00:40:33.053Z,1.80
2019-03-18T00:43:38.238Z,1.83
2019-03-18T00:46:43.350Z,2.30
2019-03-18T00:49:48.476Z,2.13
2019-03-18T00:52:53.648Z,1.83
2019-03-18T00:55:58.806Z,1.37
2019-03-18T00:59:03.869Z,1.50
2019-03-18T01:02:09.001Z,2.13
2019-03-18T01:05:14.444Z,2.77
2019-03-18T01:08:19.659Z,3.00
2019-03-18T01:11:24.808Z,3.20
2019-03-18T01:14:29.923Z,2.93
2019-03-18T01:17:35.246Z,2.57
2019-03-18T01:20:40.478Z,2.50
2019-03-18T01:23:45.573Z,2.60
2019-03-18T01:26:50.684Z,2.30
2019-03-18T01:29:55.825Z,2.00
2019-03-18T01:33:01.009Z,3.00
2019-03-18T01:36:06.181Z,2.47
2019-03-18T01:39:11.382Z,2.60
2019-03-18T01:42:16.974Z,2.67
2019-03-18T01:45:22.216Z,2.63
2019-03-18T01:48:27.344Z,2.77
2019-03-18T01:51:32.452Z,2.73
2019-03-18T01:54:37.559Z,2.90
2019-03-18T01:57:42.649Z,2.80
2019-03-18T02:00:47.754Z,3.07
2019-03-18T02:03:52.851Z,2.90
2019-03-18T02:06:58.053Z,3.00
2019-03-18T02:10:03.317Z,2.97
2019-03-18T02:13:08.487Z,3.07
2019-03-18T02:16:13.611Z,2.97
2019-03-18T02:19:18.756Z,3.13
2019-03-18T02:22:23.979Z,3.70
2019-03-18T02:25:29.078Z,3.10
2019-03-18T02:28:34.205Z,3.07
2019-03-18T02:31:40.440Z,3.10
2019-03-18T02:34:45.527Z,2.87
2019-03-18T02:37:50.680Z,2.80
2019-03-18T02:40:55.840Z,3.30
2019-03-18T02:44:00.972Z,3.30
2019-03-18T02:47:06.094Z,3.23
2019-03-18T02:50:12.328Z,3.13
2019-03-18T02:53:17.495Z,3.80
2019-03-18T02:56:22.655Z,3.40
2019-03-18T02:59:27.799Z,2.90
2019-03-18T03:02:32.848Z,3.43
2019-03-18T03:05:38.972Z,3.03
2019-03-18T03:08:44.124Z,3.00
2019-03-18T03:11:49.257Z,3.20
2019-03-18T03:14:54.414Z,3.43
2019-03-18T03:17:59.496Z,3.50
2019-03-18T03:21:04.608Z,3.83
2019-03-18T03:24:09.799Z,3.10
2019-03-18T03:27:14.914Z,4.20
2019-03-18T03:30:20.048Z,3.07
2019-03-18T03:33:25.217Z,4.50
2019-03-18T03:36:30.337Z,3.30
2019-03-18T03:39:35.539Z,3.13
2019-03-18T03:42:40.670Z,3.37
2019-03-18T03:45:45.756Z,3.40
2019-03-18T03:48:50.890Z,3.87
2019-03-18T03:51:56.051Z,3.33
2019-03-18T03:55:01.227Z,4.40
2019-03-18T03:58:06.471Z,3.93
2019-03-18T04:01:11.635Z,4.10
2019-03-18T04:04:16.729Z,4.43
2019-03-18T04:07:21.871Z,5.00
2019-03-18T04:10:26.951Z,4.10
2019-03-18T04:13:32.090Z,4.40
2019-03-18T04:16:37.213Z,4.70
2019-03-18T04:19:42.260Z,4.60
2019-03-18T04:22:47.364Z,4.03
2019-03-18T04:25:52.575Z,4.57
2019-03-18T04:28:57.719Z,4.13
2019-03-18T04:32:02.847Z,4.63
2019-03-18T04:35:07.975Z,4.20
2019-03-18T04:38:13.084Z,4.60
2019-03-18T04:41:18.280Z,4.40
2019-03-18T04:44:24.541Z,4.43
2019-03-18T04:47:29.661Z,4.50
2019-03-18T04:50:34.755Z,4.17
2019-03-18T04:53:39.924Z,4.43
2019-03-18T04:56:45.031Z,4.50
2019-03-18T04:59:50.134Z,3.63
2019-03-18T05:02:55.286Z,4.23
2019-03-18T05:06:00.468Z,4.43
2019-03-18T05:09:07.800Z,3.93
2019-03-18T05:12:12.908Z,4.20
2019-03-18T05:15:18.045Z,3.87
2019-03-18T05:18:23.163Z,5.13
2019-03-18T05:21:28.341Z,5.10
2019-03-18T05:24:33.401Z,4.53
2019-03-18T05:27:38.527Z,4.23
2019-03-18T05:30:43.683Z,4.00
2019-03-18T05:33:48.806Z,4.40
2019-03-18T05:36:53.973Z,3.40
2019-03-18T05:39:59.074Z,3.57
2019-03-18T05:43:04.215Z,5.00
2019-03-18T05:46:09.347Z,4.27
2019-03-18T05:49:14.470Z,4.10
2019-03-18T05:52:19.621Z,3.77
2019-03-18T05:55:24.767Z,3.70
2019-03-18T05:58:29.878Z,4.00
2019-03-18T06:01:35.002Z,3.87
2019-03-18T06:04:40.255Z,6.90
2019-03-18T06:07:45.363Z,7.43
2019-03-18T06:10:50.563Z,4.83
2019-03-18T06:13:56.665Z,10.80
2019-03-18T06:17:01.915Z,7.90
2019-03-18T06:20:07.978Z,3.90
2019-03-18T06:23:13.161Z,3.47
2019-03-18T06:26:18.373Z,4.23
2019-03-18T06:29:23.500Z,3.53
2019-03-18T06:32:28.640Z,4.97
2019-03-18T06:35:33.852Z,4.27
2019-03-18T06:38:38.966Z,3.70
2019-03-18T06:41:44.123Z,4.77
2019-03-18T06:44:49.369Z,4.00
2019-03-18T06:48:04.139Z,5.23
2019-03-18T06:51:01.355Z,4.00
2019-03-18T06:54:06.523Z,4.17
2019-03-18T06:57:11.614Z,3.67
2019-03-18T07:00:17.768Z,4.10
2019-03-18T07:03:22.909Z,3.60
2019-03-18T07:06:28.057Z,3.73
2019-03-18T07:09:33.170Z,3.23
2019-03-18T07:12:38.241Z,3.13
2019-03-18T07:15:43.403Z,3.50
2019-03-18T07:18:48.568Z,3.93
2019-03-18T07:21:53.839Z,3.03
2019-03-18T07:24:59.025Z,3.53
2019-03-18T07:28:04.143Z,3.37
2019-03-18T07:31:09.298Z,2.13
2019-03-18T07:34:14.449Z,3.50
2019-03-18T07:37:19.610Z,3.10
2019-03-18T07:40:24.836Z,2.60
2019-03-18T07:43:29.990Z,2.90
2019-03-18T07:46:35.162Z,2.93
2019-03-18T07:49:40.255Z,2.67
2019-03-18T07:52:45.395Z,2.80
2019-03-18T07:55:50.516Z,3.50
2019-03-18T07:58:56.733Z,2.60
2019-03-18T08:02:01.816Z,2.67
2019-03-18T08:05:08.174Z,2.63
2019-03-18T08:08:13.455Z,2.50
2019-03-18T08:11:18.634Z,3.30
2019-03-18T08:14:23.726Z,2.90
2019-03-18T08:17:28.980Z,2.67
2019-03-18T08:20:34.111Z,2.17
2019-03-18T08:24:11.671Z,2.37
2019-03-18T08:27:16.942Z,2.30
2019-03-18T08:30:22.048Z,2.50
2019-03-18T08:33:27.245Z,2.53
2019-03-18T08:36:32.444Z,2.77
2019-03-18T08:39:37.721Z,2.93
2019-03-18T08:42:42.930Z,2.33
2019-03-18T08:45:48.057Z,3.07
2019-03-18T08:48:56.007Z,8.07
2019-03-18T08:52:00.128Z,26.53
2019-03-18T08:55:05.534Z,2.47
2019-03-18T08:58:10.742Z,2.10
2019-03-18T09:01:15.905Z,2.33
2019-03-18T09:04:21.156Z,2.00
2019-03-18T09:07:26.328Z,2.03
2019-03-18T09:10:32.439Z,2.30
2019-03-18T09:13:37.619Z,2.30
2019-03-18T09:16:42.796Z,1.80
2019-03-18T09:19:47.948Z,2.07
2019-03-18T09:22:53.172Z,1.80
2019-03-18T09:25:58.375Z,2.07
2019-03-18T09:29:03.569Z,1.73
2019-03-18T09:32:08.664Z,1.70
2019-03-18T09:35:13.822Z,2.10
2019-03-18T09:38:19.005Z,1.70
2019-03-18T09:41:24.143Z,1.97
2019-03-18T09:44:29.311Z,2.20
2019-03-18T09:47:34.593Z,1.30
2019-03-18T09:50:39.767Z,1.80
2019-03-18T09:53:45.018Z,1.80
2019-03-18T09:56:50.119Z,2.00
2019-03-18T09:59:55.275Z,1.90
2019-03-18T10:03:00.451Z,2.10
2019-03-18T10:06:05.663Z,1.70
2019-03-18T10:09:10.791Z,2.20
2019-03-18T10:12:15.971Z,2.40
2019-03-18T10:15:21.234Z,1.90
2019-03-18T10:18:26.412Z,1.90
2019-03-18T10:21:31.594Z,2.30
2019-03-18T10:24:36.799Z,1.63
2019-03-18T10:27:42.014Z,1.87
2019-03-18T10:30:47.133Z,2.37
2019-03-18T10:33:52.401Z,2.43
2019-03-18T10:36:57.581Z,1.93
2019-03-18T10:40:03.923Z,1.87
2019-03-18T10:43:09.067Z,3.00
2019-03-18T10:46:14.166Z,4.50
2019-03-18T10:49:19.425Z,4.10
2019-03-18T10:52:24.551Z,1.47
2019-03-18T10:55:29.729Z,2.17
2019-03-18T10:58:34.819Z,1.67
2019-03-18T11:01:40.041Z,2.07
2019-03-18T11:04:45.139Z,1.97
2019-03-18T11:07:51.751Z,2.20
2019-03-18T11:10:58.202Z,2.73
2019-03-18T11:14:03.510Z,2.60
2019-03-18T11:17:09.671Z,1.90
2019-03-18T11:20:14.898Z,1.73
2019-03-18T11:23:20.109Z,1.67
2019-03-18T11:26:25.379Z,1.83
2019-03-18T11:29:30.495Z,1.90
2019-03-18T11:32:35.739Z,2.13
2019-03-18T11:35:40.826Z,2.23
2019-03-18T11:39:16.105Z,2.37
2019-03-18T11:42:21.300Z,1.97
2019-03-18T11:45:26.427Z,2.40
2019-03-18T11:48:31.574Z,2.30
2019-03-18T11:51:36.718Z,2.23
2019-03-18T11:54:41.906Z,1.80
2019-03-18T11:57:47.015Z,1.80
2019-03-18T12:00:52.211Z,1.67
2019-03-18T12:03:57.394Z,2.27
2019-03-18T12:07:02.550Z,1.70
2019-03-18T12:10:09.949Z,1.90
2019-03-18T12:13:16.284Z,1.80
2019-03-18T12:16:21.557Z,1.60
2019-03-18T12:19:26.754Z,1.60
2019-03-18T12:22:31.867Z,1.93
2019-03-18T12:25:37.005Z,1.90
2019-03-18T12:28:42.153Z,1.83
2019-03-18T12:31:47.360Z,2.10
2019-03-18T12:34:53.526Z,2.27
2019-03-18T12:37:58.714Z,2.27
2019-03-18T12:41:03.837Z,2.70
2019-03-18T12:44:09.034Z,2.67
2019-03-18T12:47:14.162Z,2.60
2019-03-18T12:50:36.369Z,2.50
2019-03-18T12:53:26.484Z,1.90
2019-03-18T12:56:31.612Z,2.03
2019-03-18T12:59:36.843Z,1.90
2019-03-18T13:02:42.078Z,1.40
2019-03-18T13:05:47.247Z,1.50
2019-03-18T13:08:52.363Z,1.67
2019-03-18T13:11:57.588Z,1.50
2019-03-18T13:15:02.799Z,1.97
2019-03-18T13:18:07.995Z,1.40
2019-03-18T13:21:13.093Z,1.50
2019-03-18T13:24:18.204Z,0.80
2019-03-18T13:27:23.351Z,1.10
2019-03-18T13:30:28.456Z,1.00
2019-03-18T13:33:33.575Z,0.70
2019-03-18T13:36:38.816Z,0.80
2019-03-18T13:39:43.942Z,0.80
2019-03-18T13:42:49.139Z,1.00
2019-03-18T13:45:55.530Z,0.80
2019-03-18T13:49:00.965Z,0.80
2019-03-18T13:52:06.179Z,0.73
2019-03-18T13:55:11.361Z,0.93
2019-03-18T13:58:16.544Z,1.80
2019-03-18T14:01:21.735Z,1.00
2019-03-18T14:04:28.012Z,1.53
2019-03-18T14:07:33.147Z,4.00
2019-03-18T14:10:38.247Z,1.23
2019-03-18T14:13:43.497Z,1.97
2019-03-18T14:16:48.613Z,1.97
2019-03-18T14:19:53.815Z,2.23
2019-03-18T14:22:58.982Z,1.60
2019-03-18T14:26:04.085Z,1.40
2019-03-18T14:29:09.261Z,2.07
2019-03-18T14:32:14.395Z,1.60
2019-03-18T14:35:21.678Z,1.17
2019-03-18T14:38:26.379Z,0.90
2019-03-18T14:41:31.527Z,0.80
2019-03-18T14:44:36.692Z,0.70
2019-03-18T14:47:41.830Z,0.70
2019-03-18T14:50:47.032Z,0.50
2019-03-18T14:53:52.147Z,1.00
2019-03-18T14:56:57.315Z,1.00
2019-03-18T15:00:02.462Z,1.00
2019-03-18T15:03:08.857Z,1.17
2019-03-18T15:06:14.066Z,1.00
2019-03-18T15:09:19.306Z,0.80
2019-03-18T15:12:24.577Z,0.80
2019-03-18T15:15:29.698Z,0.80
2019-03-18T15:18:34.933Z,1.00
2019-03-18T15:21:40.120Z,0.90
2019-03-18T15:24:45.218Z,1.23
2019-03-18T15:27:50.314Z,1.20
2019-03-18T15:30:55.501Z,1.20
2019-03-18T15:34:00.686Z,1.00
2019-03-18T15:37:05.849Z,0.87
2019-03-18T15:40:11.754Z,0.93
2019-03-18T15:43:16.887Z,1.30
2019-03-18T15:46:21.975Z,1.07
2019-03-18T15:49:27.142Z,1.70
2019-03-18T15:52:33.217Z,1.10
2019-03-18T15:55:38.409Z,1.20
2019-03-18T15:58:43.536Z,1.10
2019-03-18T16:01:48.683Z,0.90
2019-03-18T16:04:53.790Z,1.07
2019-03-18T16:07:59.009Z,1.10
2019-03-18T16:11:04.149Z,1.40
2019-03-18T16:14:09.363Z,1.30
2019-03-18T16:17:14.579Z,1.10
2019-03-18T16:20:19.815Z,1.10
2019-03-18T16:23:26.070Z,1.20
2019-03-18T16:26:31.251Z,1.70
2019-03-18T16:29:36.389Z,1.00
2019-03-18T16:32:41.514Z,1.10
2019-03-18T16:35:48.206Z,1.27
2019-03-18T16:38:54.365Z,1.90
2019-03-18T16:41:59.541Z,1.77
2019-03-18T16:45:04.847Z,1.50
2019-03-18T16:48:09.953Z,1.13
2019-03-18T16:51:15.146Z,1.30
2019-03-18T16:54:20.268Z,1.40
2019-03-18T16:57:25.498Z,1.60
2019-03-18T17:00:30.732Z,1.80
2019-03-18T17:03:35.811Z,3.20
2019-03-18T17:06:42.022Z,2.70
2019-03-18T17:09:47.151Z,4.77
2019-03-18T17:12:52.336Z,7.60
2019-03-18T17:15:57.465Z,7.00
2019-03-18T17:19:02.608Z,7.37
2019-03-18T17:22:07.743Z,3.57
2019-03-18T17:25:14.950Z,2.17
2019-03-18T17:28:20.083Z,1.73
2019-03-18T17:31:25.359Z,1.87
2019-03-18T17:34:30.511Z,2.10
2019-03-18T17:37:36.749Z,2.10
2019-03-18T17:40:41.940Z,1.80
2019-03-18T17:43:47.126Z,2.47
2019-03-18T17:46:52.301Z,1.87
2019-03-18T17:49:57.438Z,2.20
2019-03-18T17:53:03.977Z,1.67
2019-03-18T17:56:09.483Z,2.17
2019-03-18T17:59:14.679Z,2.07
2019-03-18T18:02:19.869Z,3.00
2019-03-18T18:05:25.032Z,3.00
2019-03-18T18:08:30.289Z,7.17
2019-03-18T18:11:35.505Z,10.00
2019-03-18T18:14:40.707Z,5.10
2019-03-18T18:17:46.286Z,9.00
2019-03-18T18:20:51.535Z,15.37
2019-03-18T18:23:56.665Z,9.13
2019-03-18T18:27:01.869Z,7.50
2019-03-18T18:30:07.575Z,10.73
2019-03-18T18:33:12.759Z,8.97
2019-03-18T18:36:17.960Z,8.87
2019-03-18T18:39:23.180Z,5.50
2019-03-18T18:42:28.249Z,5.10
2019-03-18T18:45:33.499Z,3.87
2019-03-18T18:48:38.681Z,3.13
2019-03-18T18:51:44.011Z,3.90
2019-03-18T18:54:49.169Z,3.63
2019-03-18T18:57:54.353Z,3.73
2019-03-18T19:00:59.591Z,6.40
2019-03-18T19:04:04.966Z,4.17
2019-03-18T19:07:10.203Z,6.30
2019-03-18T19:10:15.501Z,8.93
2019-03-18T19:13:20.649Z,11.40
2019-03-18T19:16:25.836Z,13.63
2019-03-18T19:19:32.363Z,14.23
2019-03-18T19:22:37.571Z,14.27
2019-03-18T19:25:42.799Z,15.57
2019-03-18T19:28:48.003Z,13.20
2019-03-18T19:31:53.198Z,10.20
2019-03-18T19:34:58.418Z,9.73
2019-03-18T19:38:03.821Z,10.80
2019-03-18T19:41:09.307Z,10.40
2019-03-18T19:44:15.472Z,9.40
2019-03-18T19:47:21.910Z,6.53
2019-03-18T19:50:27.146Z,5.97
2019-03-18T19:53:32.293Z,5.77
2019-03-18T19:56:37.447Z,5.93
2019-03-18T19:59:42.564Z,5.37
2019-03-18T20:02:47.711Z,6.20
2019-03-18T20:05:52.958Z,6.30
2019-03-18T20:08:58.231Z,4.90
2019-03-18T20:12:03.442Z,6.97
2019-03-18T20:15:10.344Z,6.67
2019-03-18T20:18:15.544Z,6.53
2019-03-18T20:21:20.710Z,5.03
2019-03-18T20:24:25.903Z,5.70
2019-03-18T20:27:31.072Z,5.17
2019-03-18T20:30:36.285Z,5.10
2019-03-18T20:33:41.530Z,4.60
2019-03-18T20:36:47.773Z,5.63
2019-03-18T20:39:53.055Z,6.30
2019-03-18T20:42:58.266Z,5.00
2019-03-18T20:46:03.449Z,5.87
2019-03-18T20:49:09.681Z,5.43
2019-03-18T20:52:17.028Z,7.60
2019-03-18T20:55:22.102Z,9.43
2019-03-18T20:58:27.270Z,8.27
2019-03-18T21:01:32.465Z,9.50
2019-03-18T21:04:37.591Z,9.57
2019-03-18T21:07:42.826Z,11.03
2019-03-18T21:10:48.003Z,12.47
2019-03-18T21:13:57.348Z,14.60
2019-03-18T21:17:00.165Z,14.20
2019-03-18T21:20:06.330Z,15.03
2019-03-18T21:23:11.518Z,13.27
2019-03-18T21:26:16.769Z,10.90
2019-03-18T21:29:22.044Z,11.90
2019-03-18T21:32:27.206Z,9.90
2019-03-18T21:35:32.422Z,9.53
2019-03-18T21:38:37.665Z,11.73
2019-03-18T21:41:42.796Z,10.67
2019-03-18T21:44:48.007Z,9.10
2019-03-18T21:47:53.143Z,8.40
2019-03-18T21:50:58.319Z,6.43
2019-03-18T21:54:03.430Z,7.53
2019-03-18T21:57:09.208Z,7.43
2019-03-18T22:00:15.876Z,12.73
2019-03-18T22:03:21.129Z,12.73
2019-03-18T22:06:26.313Z,15.10
2019-03-18T22:09:31.410Z,16.30
2019-03-18T22:12:36.622Z,13.97
2019-03-18T22:15:41.770Z,12.73
2019-03-18T22:18:46.905Z,11.87
2019-03-18T22:21:52.117Z,12.13
2019-03-18T22:24:57.273Z,11.17
2019-03-18T22:28:02.542Z,10.43
2019-03-18T22:31:07.704Z,13.73
2019-03-18T22:34:12.914Z,15.37
2019-03-18T22:37:18.131Z,14.87
2019-03-18T22:40:23.309Z,23.07
2019-03-18T22:43:28.457Z,21.20
2019-03-18T22:46:33.641Z,18.63
2019-03-18T22:49:38.767Z,15.90
2019-03-18T22:52:43.897Z,13.57
2019-03-18T22:55:49.128Z,17.37
2019-03-18T22:58:54.230Z,19.90
2019-03-18T23:01:59.438Z,17.07
2019-03-18T23:05:05.120Z,23.13
2019-03-18T23:08:10.288Z,16.53
2019-03-18T23:11:15.418Z,18.43
2019-03-18T23:14:21.657Z,18.90
2019-03-18T23:17:26.815Z,16.70
2019-03-18T23:20:32.001Z,17.70
2019-03-18T23:23:37.172Z,21.27
2019-03-18T23:26:42.442Z,17.07
2019-03-18T23:29:47.592Z,23.40
2019-03-18T23:32:52.864Z,23.47
2019-03-18T23:35:58.032Z,20.97
2019-03-18T23:39:03.847Z,23.87
2019-03-18T23:42:08.945Z,27.57
2019-03-18T23:45:14.354Z,23.13
2019-03-18T23:48:19.509Z,24.03
2019-03-18T23:51:24.689Z,25.17
2019-03-18T23:54:30.254Z,12.10
2019-03-18T23:57:35.474Z,14.23
